Kevin Leblanc

Kevin Leblanc

Statistiques 2021

  • Courses courues : 15
  • Nb de victoires : -
  • Nb de places : 2
  • Écart gagnant : 50
  • Réussite à la gagne : -
  • Réussite à la place : 13%
Musique : 7a 5a Da 8a 9a 0a 4a 0a Da Da 6a 3a 3a 9a 8a (20) 0a 0a 8a
DateRangCatégorieAlloc.Dist.HippodromeChevalRed. KmSpé.
14/04/21 7 Trot 26 000€ 2 650m Lyon La Soie El Viento 1'15"0 Attelé lire

N'a joué aucun rôle utile.

14/04/21 5 Trot 22 000€ 2 725m Lyon La Soie Gazelle Daxel 1'14"5 Attelé lire

Jamais très loin, a plafonné progressivement pour finir.

10/04/21 D Trot 23 000€ 2 650m Marseille Vivaux Deal de Cahot Attelé
10/04/21 8 Trot 22 000€ 2 675m Marseille Vivaux Ebene de Jay 1'16"2 Attelé
10/04/21 9 Trot 17 000€ 2 650m Marseille Vivaux Free Time 1'18"2 Attelé
10/04/21 0 Trot 22 000€ 2 675m Marseille Vivaux Glowing Moko Attelé
10/04/21 4 Trot 17 000€ 2 650m Marseille Vivaux Ivory Queen 1'19"4 Attelé
08/04/21 0 Trot 24 000€ 2 875m Lyon Parilly Express Evening Attelé
04/04/21 D Trot 45 000€ 2 650m Avignon Do Kiss Me Attelé lire

A été sanctionné dans le premier tournant.

04/04/21 D Trot 15 000€ 2 650m Avignon Golden Highway Attelé
02/04/21 6 Trot 15 000€ 2 675m Marseille Vivaux Ivory Queen 1'20"3 Attelé
02/04/21 3 Trot 15 000€ 2 675m Marseille Vivaux Hugo du Chatelet 1'17"4 Attelé
02/04/21 3 Trot 19 000€ 2 675m Marseille Vivaux Gironda 1'15"4 Attelé
02/04/21 9 Trot 19 000€ 2 675m Marseille Vivaux Ebene de Jay 1'16"9 Attelé
31/03/21 8 Trot 26 000€ 2 300m Marseille Borely Gazelle Daxel 1'16"5 Attelé
06/12/20 0 Trot 21 000€ 2 675m Marseille Vivaux Dune du Chenais Attelé
06/12/20 0 Trot 29 000€ 2 675m Marseille Vivaux Contree d'Erable Attelé
01/12/20 8 Trot 14 000€ 2 650m Marseille Vivaux Hardi Fossavie 1'19"9 Attelé
01/12/20 9 Trot 26 000€ 2 675m Marseille Vivaux Diamant du Rabutin 1'17"3 Attelé
01/12/20 D Trot 21 000€ 2 675m Marseille Vivaux Carmin Attelé
21/11/20 7 Trot 48 000€ 3 000m Salon De Provence Diamant du Rabutin 1'14"9 Attelé lire

Longtemps au sein du peloton, a longtemps tardé pour avoir ses aises avant de très bien terminer.

21/11/20 6 Trot 19 000€ 3 025m Salon De Provence Ferney Voltaire 1'15"7 Attelé
21/11/20 2 Trot 11 000€ 2 200m Salon De Provence Ivory Queen 1'21"6 Attelé
17/11/20 6 Trot 28 000€ 2 850m Lyon Parilly Dune du Chenais 1'14"8 Attelé
17/11/20 9 Trot 31 000€ 2 875m Lyon Parilly Gawani du Bocage 1'15"0 Attelé
17/11/20 0 Trot 23 000€ 2 600m Lyon Parilly Droopy Deladou Attelé
17/11/20 9 Trot 16 000€ 2 875m Lyon Parilly Edison du Puy 1'15"7 Attelé
17/11/20 D Trot 16 000€ 2 600m Lyon Parilly Go Fast Tejy Attelé
15/11/20 0 Trot 19 000€ 3 000m Salon De Provence Duena Keryvon Attelé
14/11/20 2 Trot 27 000€ 2 700m Lyon La Soie Daumesnil 1'14"6 Attelé
11/11/20 9 Mixte 15 000€ 2 775m Nimes Enerise Flash 1'21"2 Attelé
11/11/20 D Mixte 12 000€ 2 750m Nimes Heroine Jac Attelé
09/11/20 9 Trot 22 000€ 3 000m Marseille Borely Big Boss du Jas 1'16"2 Attelé
09/11/20 9 Trot 31 000€ 3 025m Marseille Borely Gazelle Daxel 1'18"3 Attelé
09/11/20 8 Trot 32 000€ 3 025m Marseille Borely Ferney Voltaire 1'14"8 Attelé
09/11/20 5 Trot 29 000€ 3 000m Marseille Borely Hollywood Queen 1'16"6 Attelé
09/11/20 D Trot 12 000€ 2 400m Marseille Borely Ideal des Liards Attelé
04/11/20 8 Trot 15 000€ 2 675m Marseille Vivaux High Machine 1'18"8 Attelé
04/11/20 6 Trot 29 000€ 2 650m Marseille Vivaux Delta du Poret 1'16"5 Attelé lire

Longtemps en queue de peloton, a conclu de très belle manière.

04/11/20 2 Trot 22 000€ 2 675m Marseille Vivaux Dune du Chenais 1'16"2 Attelé
04/11/20 3 Trot 17 000€ 2 675m Marseille Vivaux Forjan 1'15"8 Attelé
02/11/20 D Trot 12 000€ 2 300m Marseille Borely Grace de Rebecq Attelé
02/11/20 5 Trot 14 000€ 3 000m Marseille Borely Forever Atout 1'17"7 Attelé
02/11/20 7 Trot 15 000€ 2 300m Marseille Borely Go Fast Tejy 1'13"8 Attelé
02/11/20 8 Trot 13 000€ 3 000m Marseille Borely Haubagne 1'19"4 Attelé
29/10/20 7 Trot 22 000€ 2 675m Marseille Vivaux Hollywood Queen 1'17"9 Attelé
29/10/20 6 Trot 22 000€ 2 675m Marseille Vivaux Gazelle Daxel 1'17"4 Attelé
29/10/20 9 Trot 24 000€ 2 675m Marseille Vivaux Ferney Voltaire 1'16"7 Attelé
29/10/20 5 Trot 21 000€ 2 650m Marseille Vivaux Espoir des Ombres 1'16"5 Attelé
25/10/20 2 Trot 18 000€ 2 050m Lyon La Soie Gezireha d'Orgeres 1'16"1 Attelé